Capitol Logistics 7424

Operating for MZN



KSEA
Seattle-Tacoma International Airport
Seattle, Washington
KAFW
Fort Worth Alliance Airport
Fort Worth, Texas

Activity Log

Date Flight Route Aircraft Duration
03/10/2020 CPX363 SUMMA2 BKE J163 HOVEL Q154 UKW MOTZA9 B763 3h 20m
02/16/2019 CPX363 SUMMA1 SUMMA J54 BKE J54 BOI J15 JNC ALS PNH MDANO WESAT2 B763 3h 12m
01/30/2019 CPX363 SUMMA1 BKE V4 HOVEL Q154 UKW MOTZA8 B763 3h 10m

Route Details

Aircraft Information
Group: North America Fleet
Types: B738,B752,B762,B763
Route Data
Distance: 1428nm
Duration: 3h 14m
Recm'd Route: SUMMA2 SUMMA J54 BKE J163 HOVEL Q154 PITMN Q154 NOSEW MDANO WESAT2
Origin Wx: KSEA 160853Z 16005KT 10SM FEW065 BKN090 OVC110 13/09 A3010 RMK AO2 RAE0756 SLP198 P0000 60000 T01280089 56008
Dest. Wx: KAFW 160853Z 32004KT 10SM CLR 09/06 A3030 RMK AO2 SLP257 T00940056 50008
Notes:

Financial History
Total Freight: 312,248lbs
Average Load: 104,083lbs/flt
Fuel Used: 109,019lbs
Avg. Fuel Used: 36,340lbs/flt
Fuel Expense: $122,101
Avg. Fuel Expense: $40,700
Avg. Fuel Cost: $1.12/lbs
Total Gross Income: $415,503
Pilot Pay: $617
Total Expenses: $45,030
Total Revenue: $245,982
Average Revenue: $138,501.00